sensor_id;sensor_type;location;lat;lon;timestamp;temperature;humidity
15997;DHT22;8103;51.340;12.326;2023-12-28T00:01:49;7.70;98.60
15997;DHT22;8103;51.340;12.326;2023-12-28T00:04:17;7.80;98.60
15997;DHT22;8103;51.340;12.326;2023-12-28T00:06:44;7.80;98.40
15997;DHT22;8103;51.340;12.326;2023-12-28T00:09:11;7.80;98.40
15997;DHT22;8103;51.340;12.326;2023-12-28T00:11:39;7.80;98.20
15997;DHT22;8103;51.340;12.326;2023-12-28T00:14:05;7.80;97.90
15997;DHT22;8103;51.340;12.326;2023-12-28T00:16:32;7.90;97.80
15997;DHT22;8103;51.340;12.326;2023-12-28T00:19:00;7.90;97.80
15997;DHT22;8103;51.340;12.326;2023-12-28T00:21:31;7.90;97.60
15997;DHT22;8103;51.340;12.326;2023-12-28T00:23:59;7.90;97.50
15997;DHT22;8103;51.340;12.326;2023-12-28T00:26:25;8.00;97.50
15997;DHT22;8103;51.340;12.326;2023-12-28T00:28:52;8.00;97.50
15997;DHT22;8103;51.340;12.326;2023-12-28T00:31:19;8.00;97.30
15997;DHT22;8103;51.340;12.326;2023-12-28T00:33:45;8.00;97.20
15997;DHT22;8103;51.340;12.326;2023-12-28T00:36:12;8.10;97.10
15997;DHT22;8103;51.340;12.326;2023-12-28T00:38:39;8.10;97.00
15997;DHT22;8103;51.340;12.326;2023-12-28T00:41:05;8.10;96.90
15997;DHT22;8103;51.340;12.326;2023-12-28T00:43:32;8.10;96.90
15997;DHT22;8103;51.340;12.326;2023-12-28T00:45:59;8.10;96.80
15997;DHT22;8103;51.340;12.326;2023-12-28T00:48:25;8.10;96.90
15997;DHT22;8103;51.340;12.326;2023-12-28T00:50:53;8.00;96.80
15997;DHT22;8103;51.340;12.326;2023-12-28T00:53:21;8.00;96.80
15997;DHT22;8103;51.340;12.326;2023-12-28T00:55:48;8.00;96.80
15997;DHT22;8103;51.340;12.326;2023-12-28T00:58:15;8.00;96.60
15997;DHT22;8103;51.340;12.326;2023-12-28T01:00:42;8.00;96.60
15997;DHT22;8103;51.340;12.326;2023-12-28T01:03:09;8.00;96.60
15997;DHT22;8103;51.340;12.326;2023-12-28T01:05:36;7.90;96.60
15997;DHT22;8103;51.340;12.326;2023-12-28T01:08:02;7.90;96.60
15997;DHT22;8103;51.340;12.326;2023-12-28T01:10:29;7.90;96.60
15997;DHT22;8103;51.340;12.326;2023-12-28T01:12:56;7.90;96.60
15997;DHT22;8103;51.340;12.326;2023-12-28T01:15:23;7.90;96.60
15997;DHT22;8103;51.340;12.326;2023-12-28T01:17:49;7.90;96.70
15997;DHT22;8103;51.340;12.326;2023-12-28T01:20:16;7.90;96.70
15997;DHT22;8103;51.340;12.326;2023-12-28T01:22:43;7.90;96.70
15997;DHT22;8103;51.340;12.326;2023-12-28T01:25:09;7.90;96.80
15997;DHT22;8103;51.340;12.326;2023-12-28T01:27:36;7.90;96.70
15997;DHT22;8103;51.340;12.326;2023-12-28T01:30:03;7.80;96.70
15997;DHT22;8103;51.340;12.326;2023-12-28T01:32:30;7.80;96.70
15997;DHT22;8103;51.340;12.326;2023-12-28T01:34:56;7.80;96.70
15997;DHT22;8103;51.340;12.326;2023-12-28T01:37:23;7.80;96.50
15997;DHT22;8103;51.340;12.326;2023-12-28T01:39:50;7.80;96.60
15997;DHT22;8103;51.340;12.326;2023-12-28T01:42:17;7.80;96.50
15997;DHT22;8103;51.340;12.326;2023-12-28T01:44:43;7.70;96.40
15997;DHT22;8103;51.340;12.326;2023-12-28T01:47:10;7.70;96.10
15997;DHT22;8103;51.340;12.326;2023-12-28T01:49:37;7.80;95.90
15997;DHT22;8103;51.340;12.326;2023-12-28T01:52:04;7.80;95.80
15997;DHT22;8103;51.340;12.326;2023-12-28T01:54:33;7.90;94.90
15997;DHT22;8103;51.340;12.326;2023-12-28T01:57:02;8.00;94.30
15997;DHT22;8103;51.340;12.326;2023-12-28T01:59:31;8.10;93.90
15997;DHT22;8103;51.340;12.326;2023-12-28T02:01:58;8.20;93.60
15997;DHT22;8103;51.340;12.326;2023-12-28T02:04:25;8.30;93.20
15997;DHT22;8103;51.340;12.326;2023-12-28T02:06:57;8.30;92.80
15997;DHT22;8103;51.340;12.326;2023-12-28T02:09:24;8.40;92.50
15997;DHT22;8103;51.340;12.326;2023-12-28T02:11:52;8.50;92.20
15997;DHT22;8103;51.340;12.326;2023-12-28T02:14:21;8.50;92.00
15997;DHT22;8103;51.340;12.326;2023-12-28T02:17:09;8.60;91.90
15997;DHT22;8103;51.340;12.326;2023-12-28T02:19:53;8.60;91.90
15997;DHT22;8103;51.340;12.326;2023-12-28T02:22:23;8.60;91.80
15997;DHT22;8103;51.340;12.326;2023-12-28T02:27:41;8.60;91.40
15997;DHT22;8103;51.340;12.326;2023-12-28T02:30:10;8.60;91.30
15997;DHT22;8103;51.340;12.326;2023-12-28T02:35:37;8.60;91.00
15997;DHT22;8103;51.340;12.326;2023-12-28T02:38:07;8.60;91.00
15997;DHT22;8103;51.340;12.326;2023-12-28T02:40:37;8.60;90.90
15997;DHT22;8103;51.340;12.326;2023-12-28T02:43:06;8.70;90.70
15997;DHT22;8103;51.340;12.326;2023-12-28T02:45:33;8.70;90.60
15997;DHT22;8103;51.340;12.326;2023-12-28T02:48:01;8.70;90.40
15997;DHT22;8103;51.340;12.326;2023-12-28T02:50:28;8.70;90.20
15997;DHT22;8103;51.340;12.326;2023-12-28T02:52:59;8.80;90.20
15997;DHT22;8103;51.340;12.326;2023-12-28T02:55:26;8.80;90.10
15997;DHT22;8103;51.340;12.326;2023-12-28T02:57:55;8.80;89.80
15997;DHT22;8103;51.340;12.326;2023-12-28T03:00:22;8.90;89.50
15997;DHT22;8103;51.340;12.326;2023-12-28T03:02:49;8.90;89.10
15997;DHT22;8103;51.340;12.326;2023-12-28T03:05:16;8.90;88.80
15997;DHT22;8103;51.340;12.326;2023-12-28T03:07:42;9.00;89.00
15997;DHT22;8103;51.340;12.326;2023-12-28T03:10:09;9.00;88.20
15997;DHT22;8103;51.340;12.326;2023-12-28T03:12:40;9.00;87.80
15997;DHT22;8103;51.340;12.326;2023-12-28T03:15:07;9.10;87.10
15997;DHT22;8103;51.340;12.326;2023-12-28T03:17:34;9.20;86.60
15997;DHT22;8103;51.340;12.326;2023-12-28T03:20:03;9.30;86.10
15997;DHT22;8103;51.340;12.326;2023-12-28T03:22:30;9.30;85.80
15997;DHT22;8103;51.340;12.326;2023-12-28T03:24:57;9.40;85.30
15997;DHT22;8103;51.340;12.326;2023-12-28T03:27:23;9.40;85.20
15997;DHT22;8103;51.340;12.326;2023-12-28T03:29:50;9.40;84.80
15997;DHT22;8103;51.340;12.326;2023-12-28T03:32:17;9.40;84.60
15997;DHT22;8103;51.340;12.326;2023-12-28T03:34:43;9.50;84.80
15997;DHT22;8103;51.340;12.326;2023-12-28T03:37:10;9.50;85.20
15997;DHT22;8103;51.340;12.326;2023-12-28T03:39:37;9.40;85.90
15997;DHT22;8103;51.340;12.326;2023-12-28T03:42:04;9.30;86.90
15997;DHT22;8103;51.340;12.326;2023-12-28T03:44:31;9.30;87.10
15997;DHT22;8103;51.340;12.326;2023-12-28T03:46:58;9.20;87.60
15997;DHT22;8103;51.340;12.326;2023-12-28T03:49:24;9.20;87.90
15997;DHT22;8103;51.340;12.326;2023-12-28T03:51:52;9.20;87.80
15997;DHT22;8103;51.340;12.326;2023-12-28T03:54:19;9.10;87.80
15997;DHT22;8103;51.340;12.326;2023-12-28T03:56:46;9.10;87.80
15997;DHT22;8103;51.340;12.326;2023-12-28T03:59:13;9.20;87.80
15997;DHT22;8103;51.340;12.326;2023-12-28T04:01:44;9.20;87.90
15997;DHT22;8103;51.340;12.326;2023-12-28T04:04:11;9.20;88.00
15997;DHT22;8103;51.340;12.326;2023-12-28T04:06:38;9.20;88.10
15997;DHT22;8103;51.340;12.326;2023-12-28T04:09:05;9.20;88.40
15997;DHT22;8103;51.340;12.326;2023-12-28T04:11:32;9.20;88.70
15997;DHT22;8103;51.340;12.326;2023-12-28T04:14:00;9.30;89.00
15997;DHT22;8103;51.340;12.326;2023-12-28T04:16:26;9.30;88.80
15997;DHT22;8103;51.340;12.326;2023-12-28T04:18:53;9.30;88.80
15997;DHT22;8103;51.340;12.326;2023-12-28T04:21:20;9.30;88.80
15997;DHT22;8103;51.340;12.326;2023-12-28T04:23:48;9.40;88.70
15997;DHT22;8103;51.340;12.326;2023-12-28T04:26:18;9.40;88.90
15997;DHT22;8103;51.340;12.326;2023-12-28T04:28:47;9.40;88.80
15997;DHT22;8103;51.340;12.326;2023-12-28T04:31:13;9.40;88.90
15997;DHT22;8103;51.340;12.326;2023-12-28T04:33:44;9.40;88.80
15997;DHT22;8103;51.340;12.326;2023-12-28T04:36:14;9.40;88.90
15997;DHT22;8103;51.340;12.326;2023-12-28T04:38:40;9.50;89.10
15997;DHT22;8103;51.340;12.326;2023-12-28T04:41:09;9.50;89.50
15997;DHT22;8103;51.340;12.326;2023-12-28T04:43:36;9.50;89.90
15997;DHT22;8103;51.340;12.326;2023-12-28T04:46:04;9.50;90.00
15997;DHT22;8103;51.340;12.326;2023-12-28T04:48:31;9.50;90.20
15997;DHT22;8103;51.340;12.326;2023-12-28T04:50:58;9.50;90.40
15997;DHT22;8103;51.340;12.326;2023-12-28T04:53:28;9.60;90.40
15997;DHT22;8103;51.340;12.326;2023-12-28T04:55:55;9.60;90.40
15997;DHT22;8103;51.340;12.326;2023-12-28T04:58:22;9.70;90.50
15997;DHT22;8103;51.340;12.326;2023-12-28T05:00:49;9.70;90.60
15997;DHT22;8103;51.340;12.326;2023-12-28T05:03:16;9.70;90.70
15997;DHT22;8103;51.340;12.326;2023-12-28T05:05:43;9.70;90.70
15997;DHT22;8103;51.340;12.326;2023-12-28T05:08:10;9.70;90.70
15997;DHT22;8103;51.340;12.326;2023-12-28T05:10:37;9.80;90.70
15997;DHT22;8103;51.340;12.326;2023-12-28T05:13:04;9.80;90.60
15997;DHT22;8103;51.340;12.326;2023-12-28T05:15:30;9.90;90.60
15997;DHT22;8103;51.340;12.326;2023-12-28T05:18:00;9.90;90.60
15997;DHT22;8103;51.340;12.326;2023-12-28T05:20:27;9.90;90.60
15997;DHT22;8103;51.340;12.326;2023-12-28T05:22:54;10.00;90.70
15997;DHT22;8103;51.340;12.326;2023-12-28T05:25:21;9.90;90.80
15997;DHT22;8103;51.340;12.326;2023-12-28T05:27:48;9.90;91.30
15997;DHT22;8103;51.340;12.326;2023-12-28T05:30:15;9.90;91.20
15997;DHT22;8103;51.340;12.326;2023-12-28T05:32:42;9.90;91.40
15997;DHT22;8103;51.340;12.326;2023-12-28T05:35:09;9.90;91.70
15997;DHT22;8103;51.340;12.326;2023-12-28T05:37:36;9.90;92.00
15997;DHT22;8103;51.340;12.326;2023-12-28T05:40:06;9.90;92.40
15997;DHT22;8103;51.340;12.326;2023-12-28T05:42:33;9.80;92.60
15997;DHT22;8103;51.340;12.326;2023-12-28T05:45:00;9.80;92.90
15997;DHT22;8103;51.340;12.326;2023-12-28T05:47:26;9.80;93.20
15997;DHT22;8103;51.340;12.326;2023-12-28T05:49:53;9.70;93.70
15997;DHT22;8103;51.340;12.326;2023-12-28T05:52:20;9.70;93.70
15997;DHT22;8103;51.340;12.326;2023-12-28T05:54:46;9.60;94.10
15997;DHT22;8103;51.340;12.326;2023-12-28T05:57:14;9.60;94.40
15997;DHT22;8103;51.340;12.326;2023-12-28T05:59:41;9.60;94.60
15997;DHT22;8103;51.340;12.326;2023-12-28T06:02:08;9.60;94.90
15997;DHT22;8103;51.340;12.326;2023-12-28T06:04:34;9.60;95.20
15997;DHT22;8103;51.340;12.326;2023-12-28T06:07:03;9.60;95.40
15997;DHT22;8103;51.340;12.326;2023-12-28T06:09:30;9.60;95.70
15997;DHT22;8103;51.340;12.326;2023-12-28T06:11:57;9.70;95.90
15997;DHT22;8103;51.340;12.326;2023-12-28T06:14:24;9.70;95.90
15997;DHT22;8103;51.340;12.326;2023-12-28T06:16:50;9.70;96.00
15997;DHT22;8103;51.340;12.326;2023-12-28T06:19:17;9.80;96.10
15997;DHT22;8103;51.340;12.326;2023-12-28T06:21:44;9.80;96.30
15997;DHT22;8103;51.340;12.326;2023-12-28T06:24:10;9.80;96.60
15997;DHT22;8103;51.340;12.326;2023-12-28T06:26:41;9.80;96.80
15997;DHT22;8103;51.340;12.326;2023-12-28T06:29:08;9.80;97.10
15997;DHT22;8103;51.340;12.326;2023-12-28T06:31:36;9.80;97.30
15997;DHT22;8103;51.340;12.326;2023-12-28T06:34:04;9.70;97.40
15997;DHT22;8103;51.340;12.326;2023-12-28T06:36:31;9.70;97.70
15997;DHT22;8103;51.340;12.326;2023-12-28T06:38:58;9.70;97.80
15997;DHT22;8103;51.340;12.326;2023-12-28T06:41:26;9.60;98.00
15997;DHT22;8103;51.340;12.326;2023-12-28T06:43:53;9.60;98.20
15997;DHT22;8103;51.340;12.326;2023-12-28T06:46:19;9.60;98.50
15997;DHT22;8103;51.340;12.326;2023-12-28T06:48:46;9.60;98.70
15997;DHT22;8103;51.340;12.326;2023-12-28T06:51:17;9.50;98.80
15997;DHT22;8103;51.340;12.326;2023-12-28T06:53:45;9.50;98.90
15997;DHT22;8103;51.340;12.326;2023-12-28T06:56:12;9.50;99.10
15997;DHT22;8103;51.340;12.326;2023-12-28T06:58:39;9.50;99.30
15997;DHT22;8103;51.340;12.326;2023-12-28T07:01:06;9.50;99.40
15997;DHT22;8103;51.340;12.326;2023-12-28T07:03:33;9.50;99.60
15997;DHT22;8103;51.340;12.326;2023-12-28T07:06:00;9.50;99.70
15997;DHT22;8103;51.340;12.326;2023-12-28T07:08:27;9.50;99.90
15997;DHT22;8103;51.340;12.326;2023-12-28T07:10:53;9.50;99.90
15997;DHT22;8103;51.340;12.326;2023-12-28T07:13:20;9.50;99.90
15997;DHT22;8103;51.340;12.326;2023-12-28T07:15:47;9.50;99.90
15997;DHT22;8103;51.340;12.326;2023-12-28T07:18:13;9.40;99.90
15997;DHT22;8103;51.340;12.326;2023-12-28T07:20:40;9.40;99.90
15997;DHT22;8103;51.340;12.326;2023-12-28T07:23:07;9.40;99.90
15997;DHT22;8103;51.340;12.326;2023-12-28T07:25:35;9.40;99.90
15997;DHT22;8103;51.340;12.326;2023-12-28T07:28:02;9.30;99.90
15997;DHT22;8103;51.340;12.326;2023-12-28T07:30:30;9.30;99.90
15997;DHT22;8103;51.340;12.326;2023-12-28T07:32:59;9.30;99.90
15997;DHT22;8103;51.340;12.326;2023-12-28T07:35:31;9.30;99.90
15997;DHT22;8103;51.340;12.326;2023-12-28T07:38:01;9.30;99.90
15997;DHT22;8103;51.340;12.326;2023-12-28T07:40:28;9.20;99.90
15997;DHT22;8103;51.340;12.326;2023-12-28T07:42:55;9.30;99.90
15997;DHT22;8103;51.340;12.326;2023-12-28T07:45:26;9.30;99.90
15997;DHT22;8103;51.340;12.326;2023-12-28T07:47:53;9.30;99.90
15997;DHT22;8103;51.340;12.326;2023-12-28T07:50:20;9.30;99.90
15997;DHT22;8103;51.340;12.326;2023-12-28T07:52:48;9.30;99.90
15997;DHT22;8103;51.340;12.326;2023-12-28T07:55:15;9.30;99.90
15997;DHT22;8103;51.340;12.326;2023-12-28T07:57:43;9.30;99.90
15997;DHT22;8103;51.340;12.326;2023-12-28T08:00:10;9.30;99.90
15997;DHT22;8103;51.340;12.326;2023-12-28T08:02:38;9.30;99.90
15997;DHT22;8103;51.340;12.326;2023-12-28T08:05:05;9.20;99.90
15997;DHT22;8103;51.340;12.326;2023-12-28T08:07:35;9.20;99.90
15997;DHT22;8103;51.340;12.326;2023-12-28T08:10:02;9.10;99.90
15997;DHT22;8103;51.340;12.326;2023-12-28T08:12:29;9.10;99.90
15997;DHT22;8103;51.340;12.326;2023-12-28T08:14:59;9.00;99.90
15997;DHT22;8103;51.340;12.326;2023-12-28T08:17:28;9.00;99.90
15997;DHT22;8103;51.340;12.326;2023-12-28T08:19:55;9.00;99.90
15997;DHT22;8103;51.340;12.326;2023-12-28T08:22:25;8.90;99.90
15997;DHT22;8103;51.340;12.326;2023-12-28T08:24:58;8.90;99.90
15997;DHT22;8103;51.340;12.326;2023-12-28T08:27:28;8.90;99.90
15997;DHT22;8103;51.340;12.326;2023-12-28T08:29:55;8.90;99.90
15997;DHT22;8103;51.340;12.326;2023-12-28T08:32:22;9.00;99.90
15997;DHT22;8103;51.340;12.326;2023-12-28T08:34:54;8.90;99.90
15997;DHT22;8103;51.340;12.326;2023-12-28T08:37:20;8.90;99.90
15997;DHT22;8103;51.340;12.326;2023-12-28T08:39:47;8.90;99.90
15997;DHT22;8103;51.340;12.326;2023-12-28T08:42:15;8.90;99.90
15997;DHT22;8103;51.340;12.326;2023-12-28T08:44:42;8.90;99.90
15997;DHT22;8103;51.340;12.326;2023-12-28T08:50:58;8.90;99.90
15997;DHT22;8103;51.340;12.326;2023-12-28T08:53:27;9.00;99.90
15997;DHT22;8103;51.340;12.326;2023-12-28T08:55:54;9.00;99.90
15997;DHT22;8103;51.340;12.326;2023-12-28T08:58:29;9.00;99.90
15997;DHT22;8103;51.340;12.326;2023-12-28T09:00:58;9.00;99.90
15997;DHT22;8103;51.340;12.326;2023-12-28T09:03:25;9.00;99.90
15997;DHT22;8103;51.340;12.326;2023-12-28T09:05:53;9.00;99.90
15997;DHT22;8103;51.340;12.326;2023-12-28T09:08:21;9.00;99.90
15997;DHT22;8103;51.340;12.326;2023-12-28T09:10:51;9.00;99.90
15997;DHT22;8103;51.340;12.326;2023-12-28T09:13:23;9.00;99.90
15997;DHT22;8103;51.340;12.326;2023-12-28T09:15:50;9.00;99.90
15997;DHT22;8103;51.340;12.326;2023-12-28T09:18:17;9.00;99.90
15997;DHT22;8103;51.340;12.326;2023-12-28T09:20:50;9.00;99.90
15997;DHT22;8103;51.340;12.326;2023-12-28T09:23:17;9.10;99.90
15997;DHT22;8103;51.340;12.326;2023-12-28T09:25:49;9.10;99.90
15997;DHT22;8103;51.340;12.326;2023-12-28T09:28:16;9.10;99.90
15997;DHT22;8103;51.340;12.326;2023-12-28T09:30:48;9.10;99.90
15997;DHT22;8103;51.340;12.326;2023-12-28T09:33:15;9.10;99.90
15997;DHT22;8103;51.340;12.326;2023-12-28T09:35:44;9.10;99.90
15997;DHT22;8103;51.340;12.326;2023-12-28T09:38:14;9.10;99.90
15997;DHT22;8103;51.340;12.326;2023-12-28T09:40:43;9.10;99.90
15997;DHT22;8103;51.340;12.326;2023-12-28T09:43:37;9.10;99.90
15997;DHT22;8103;51.340;12.326;2023-12-28T09:46:07;9.10;99.90
15997;DHT22;8103;51.340;12.326;2023-12-28T09:48:38;9.10;99.90
15997;DHT22;8103;51.340;12.326;2023-12-28T09:51:10;9.10;99.90
15997;DHT22;8103;51.340;12.326;2023-12-28T09:53:46;9.10;99.90
15997;DHT22;8103;51.340;12.326;2023-12-28T09:56:13;9.10;99.90
15997;DHT22;8103;51.340;12.326;2023-12-28T09:58:44;9.20;99.90
15997;DHT22;8103;51.340;12.326;2023-12-28T10:01:14;9.40;99.90
15997;DHT22;8103;51.340;12.326;2023-12-28T10:03:41;9.70;99.90
15997;DHT22;8103;51.340;12.326;2023-12-28T10:06:09;9.70;99.90
15997;DHT22;8103;51.340;12.326;2023-12-28T10:08:36;9.60;99.90
15997;DHT22;8103;51.340;12.326;2023-12-28T10:11:06;9.60;99.90
15997;DHT22;8103;51.340;12.326;2023-12-28T10:13:33;9.60;99.90
15997;DHT22;8103;51.340;12.326;2023-12-28T10:16:01;9.60;99.90
15997;DHT22;8103;51.340;12.326;2023-12-28T10:18:30;9.60;99.90
15997;DHT22;8103;51.340;12.326;2023-12-28T10:20:57;9.60;99.90
15997;DHT22;8103;51.340;12.326;2023-12-28T10:23:24;9.60;99.90
15997;DHT22;8103;51.340;12.326;2023-12-28T10:25:56;9.70;99.90
15997;DHT22;8103;51.340;12.326;2023-12-28T10:28:24;9.70;99.90
15997;DHT22;8103;51.340;12.326;2023-12-28T10:30:55;9.80;99.90
15997;DHT22;8103;51.340;12.326;2023-12-28T10:33:25;9.80;99.90
15997;DHT22;8103;51.340;12.326;2023-12-28T10:35:52;9.80;99.90
15997;DHT22;8103;51.340;12.326;2023-12-28T10:38:26;9.90;99.90
15997;DHT22;8103;51.340;12.326;2023-12-28T10:40:56;9.90;99.90
15997;DHT22;8103;51.340;12.326;2023-12-28T10:43:24;9.90;99.90
15997;DHT22;8103;51.340;12.326;2023-12-28T10:45:51;9.90;99.90
15997;DHT22;8103;51.340;12.326;2023-12-28T10:48:28;9.90;99.90
15997;DHT22;8103;51.340;12.326;2023-12-28T10:50:58;9.90;99.90
15997;DHT22;8103;51.340;12.326;2023-12-28T10:53:33;10.00;99.90
15997;DHT22;8103;51.340;12.326;2023-12-28T10:56:36;9.90;99.90
15997;DHT22;8103;51.340;12.326;2023-12-28T11:01:35;9.90;99.90
15997;DHT22;8103;51.340;12.326;2023-12-28T11:04:17;10.00;99.90
15997;DHT22;8103;51.340;12.326;2023-12-28T11:06:50;10.00;99.90
15997;DHT22;8103;51.340;12.326;2023-12-28T11:09:18;10.00;99.90
15997;DHT22;8103;51.340;12.326;2023-12-28T11:11:49;10.10;99.90
15997;DHT22;8103;51.340;12.326;2023-12-28T11:14:17;10.10;99.90
15997;DHT22;8103;51.340;12.326;2023-12-28T11:16:51;10.20;99.90
15997;DHT22;8103;51.340;12.326;2023-12-28T11:19:19;10.20;99.90
15997;DHT22;8103;51.340;12.326;2023-12-28T11:21:49;10.30;99.90
15997;DHT22;8103;51.340;12.326;2023-12-28T11:24:16;10.30;99.90
15997;DHT22;8103;51.340;12.326;2023-12-28T11:26:44;10.60;99.90
15997;DHT22;8103;51.340;12.326;2023-12-28T11:29:12;10.70;99.90
15997;DHT22;8103;51.340;12.326;2023-12-28T11:31:38;10.60;99.90
15997;DHT22;8103;51.340;12.326;2023-12-28T11:34:05;10.50;99.90
15997;DHT22;8103;51.340;12.326;2023-12-28T11:36:43;10.30;99.90
15997;DHT22;8103;51.340;12.326;2023-12-28T11:39:12;10.20;99.90
15997;DHT22;8103;51.340;12.326;2023-12-28T11:41:46;10.10;99.90
15997;DHT22;8103;51.340;12.326;2023-12-28T11:44:13;10.10;99.90
15997;DHT22;8103;51.340;12.326;2023-12-28T11:46:40;10.10;99.90
15997;DHT22;8103;51.340;12.326;2023-12-28T11:49:10;10.00;99.90
15997;DHT22;8103;51.340;12.326;2023-12-28T11:51:40;10.10;99.90
15997;DHT22;8103;51.340;12.326;2023-12-28T11:54:08;10.10;99.90
15997;DHT22;8103;51.340;12.326;2023-12-28T11:56:35;10.00;99.90
15997;DHT22;8103;51.340;12.326;2023-12-28T11:59:04;10.10;99.90
15997;DHT22;8103;51.340;12.326;2023-12-28T12:01:32;10.10;99.90
15997;DHT22;8103;51.340;12.326;2023-12-28T12:03:59;10.10;99.90
15997;DHT22;8103;51.340;12.326;2023-12-28T12:06:26;10.00;99.90
15997;DHT22;8103;51.340;12.326;2023-12-28T12:08:54;10.10;99.90
15997;DHT22;8103;51.340;12.326;2023-12-28T12:11:22;10.10;99.90
15997;DHT22;8103;51.340;12.326;2023-12-28T12:13:53;10.10;99.90
15997;DHT22;8103;51.340;12.326;2023-12-28T12:16:21;10.10;99.90
15997;DHT22;8103;51.340;12.326;2023-12-28T12:18:49;10.10;99.90
15997;DHT22;8103;51.340;12.326;2023-12-28T12:21:17;10.40;99.90
15997;DHT22;8103;51.340;12.326;2023-12-28T12:23:45;10.60;99.90
15997;DHT22;8103;51.340;12.326;2023-12-28T12:26:12;10.80;99.90
15997;DHT22;8103;51.340;12.326;2023-12-28T12:28:40;11.00;99.90
15997;DHT22;8103;51.340;12.326;2023-12-28T12:31:09;11.10;99.90
15997;DHT22;8103;51.340;12.326;2023-12-28T12:33:36;11.20;99.90
15997;DHT22;8103;51.340;12.326;2023-12-28T12:36:06;11.30;99.90
15997;DHT22;8103;51.340;12.326;2023-12-28T12:38:33;11.40;99.90
15997;DHT22;8103;51.340;12.326;2023-12-28T12:41:00;11.40;99.80
15997;DHT22;8103;51.340;12.326;2023-12-28T12:43:27;11.40;99.50
15997;DHT22;8103;51.340;12.326;2023-12-28T12:45:54;11.50;99.30
15997;DHT22;8103;51.340;12.326;2023-12-28T12:48:21;11.50;99.00
15997;DHT22;8103;51.340;12.326;2023-12-28T12:50:48;11.60;99.10
15997;DHT22;8103;51.340;12.326;2023-12-28T12:53:15;11.50;98.70
15997;DHT22;8103;51.340;12.326;2023-12-28T12:55:42;11.50;99.00
15997;DHT22;8103;51.340;12.326;2023-12-28T12:58:10;11.50;99.30
15997;DHT22;8103;51.340;12.326;2023-12-28T13:00:39;11.50;99.00
15997;DHT22;8103;51.340;12.326;2023-12-28T13:03:09;11.50;99.20
15997;DHT22;8103;51.340;12.326;2023-12-28T13:05:36;11.50;98.90
15997;DHT22;8103;51.340;12.326;2023-12-28T13:08:04;11.50;98.80
15997;DHT22;8103;51.340;12.326;2023-12-28T13:10:31;11.50;98.70
15997;DHT22;8103;51.340;12.326;2023-12-28T13:12:58;11.50;99.00
15997;DHT22;8103;51.340;12.326;2023-12-28T13:15:27;11.50;98.80
15997;DHT22;8103;51.340;12.326;2023-12-28T13:17:54;11.50;98.50
15997;DHT22;8103;51.340;12.326;2023-12-28T13:20:21;11.50;98.90
15997;DHT22;8103;51.340;12.326;2023-12-28T13:22:48;11.50;99.40
15997;DHT22;8103;51.340;12.326;2023-12-28T13:25:15;11.60;98.90
15997;DHT22;8103;51.340;12.326;2023-12-28T13:27:42;11.60;98.30
15997;DHT22;8103;51.340;12.326;2023-12-28T13:30:09;12.20;98.10
15997;DHT22;8103;51.340;12.326;2023-12-28T13:32:36;13.10;97.00
15997;DHT22;8103;51.340;12.326;2023-12-28T13:35:03;13.90;94.40
15997;DHT22;8103;51.340;12.326;2023-12-28T13:37:30;14.20;92.20
15997;DHT22;8103;51.340;12.326;2023-12-28T13:39:56;14.40;91.20
15997;DHT22;8103;51.340;12.326;2023-12-28T13:42:23;14.40;91.20
15997;DHT22;8103;51.340;12.326;2023-12-28T13:44:50;14.20;90.80
15997;DHT22;8103;51.340;12.326;2023-12-28T13:47:16;13.90;91.00
15997;DHT22;8103;51.340;12.326;2023-12-28T13:49:43;13.40;91.50
15997;DHT22;8103;51.340;12.326;2023-12-28T13:52:10;12.90;92.20
15997;DHT22;8103;51.340;12.326;2023-12-28T13:54:36;12.50;93.00
15997;DHT22;8103;51.340;12.326;2023-12-28T13:57:03;12.30;93.60
15997;DHT22;8103;51.340;12.326;2023-12-28T13:59:30;12.10;94.50
15997;DHT22;8103;51.340;12.326;2023-12-28T14:01:57;11.90;94.60
15997;DHT22;8103;51.340;12.326;2023-12-28T14:04:25;11.70;95.10
15997;DHT22;8103;51.340;12.326;2023-12-28T14:06:52;11.60;95.40
15997;DHT22;8103;51.340;12.326;2023-12-28T14:09:19;11.40;95.60
15997;DHT22;8103;51.340;12.326;2023-12-28T14:11:48;11.30;95.60
15997;DHT22;8103;51.340;12.326;2023-12-28T14:14:14;11.20;95.90
15997;DHT22;8103;51.340;12.326;2023-12-28T14:16:41;11.10;96.10
15997;DHT22;8103;51.340;12.326;2023-12-28T14:19:12;11.00;96.30
15997;DHT22;8103;51.340;12.326;2023-12-28T14:21:39;10.90;96.50
15997;DHT22;8103;51.340;12.326;2023-12-28T14:24:06;10.80;96.80
15997;DHT22;8103;51.340;12.326;2023-12-28T14:26:33;10.70;97.00
15997;DHT22;8103;51.340;12.326;2023-12-28T14:29:01;10.70;97.20
15997;DHT22;8103;51.340;12.326;2023-12-28T14:31:32;10.60;97.40
15997;DHT22;8103;51.340;12.326;2023-12-28T14:33:59;10.50;97.60
15997;DHT22;8103;51.340;12.326;2023-12-28T14:36:33;10.50;97.70
15997;DHT22;8103;51.340;12.326;2023-12-28T14:39:02;10.40;97.80
15997;DHT22;8103;51.340;12.326;2023-12-28T14:41:36;10.40;97.90
15997;DHT22;8103;51.340;12.326;2023-12-28T14:44:05;10.40;98.00
15997;DHT22;8103;51.340;12.326;2023-12-28T14:46:32;10.30;98.10
15997;DHT22;8103;51.340;12.326;2023-12-28T14:48:59;10.30;98.20
15997;DHT22;8103;51.340;12.326;2023-12-28T14:51:29;10.20;98.30
15997;DHT22;8103;51.340;12.326;2023-12-28T14:53:56;10.30;99.90
15997;DHT22;8103;51.340;12.326;2023-12-28T14:56:23;10.40;99.80
15997;DHT22;8103;51.340;12.326;2023-12-28T14:58:51;10.50;99.50
15997;DHT22;8103;51.340;12.326;2023-12-28T15:01:19;10.50;98.00
15997;DHT22;8103;51.340;12.326;2023-12-28T15:03:47;10.50;97.80
15997;DHT22;8103;51.340;12.326;2023-12-28T15:06:14;10.40;97.80
15997;DHT22;8103;51.340;12.326;2023-12-28T15:08:40;10.30;98.00
15997;DHT22;8103;51.340;12.326;2023-12-28T15:11:08;10.20;98.10
15997;DHT22;8103;51.340;12.326;2023-12-28T15:13:37;10.20;98.20
15997;DHT22;8103;51.340;12.326;2023-12-28T15:16:04;10.10;98.30
15997;DHT22;8103;51.340;12.326;2023-12-28T15:18:32;10.00;98.40
15997;DHT22;8103;51.340;12.326;2023-12-28T15:21:00;10.00;98.60
15997;DHT22;8103;51.340;12.326;2023-12-28T15:23:27;9.90;98.80
15997;DHT22;8103;51.340;12.326;2023-12-28T15:25:54;9.80;98.90
15997;DHT22;8103;51.340;12.326;2023-12-28T15:28:21;9.80;99.00
15997;DHT22;8103;51.340;12.326;2023-12-28T15:30:50;9.80;99.10
15997;DHT22;8103;51.340;12.326;2023-12-28T15:33:16;9.80;99.00
15997;DHT22;8103;51.340;12.326;2023-12-28T15:35:43;9.80;99.00
15997;DHT22;8103;51.340;12.326;2023-12-28T15:38:10;9.80;99.00
15997;DHT22;8103;51.340;12.326;2023-12-28T15:40:37;9.80;99.00
15997;DHT22;8103;51.340;12.326;2023-12-28T15:43:03;9.70;99.20
15997;DHT22;8103;51.340;12.326;2023-12-28T15:45:30;9.70;99.40
15997;DHT22;8103;51.340;12.326;2023-12-28T15:47:57;9.60;99.50
15997;DHT22;8103;51.340;12.326;2023-12-28T15:50:25;9.50;99.60
15997;DHT22;8103;51.340;12.326;2023-12-28T15:52:51;9.50;99.70
15997;DHT22;8103;51.340;12.326;2023-12-28T15:55:18;9.50;99.90
15997;DHT22;8103;51.340;12.326;2023-12-28T15:57:54;9.40;99.90
15997;DHT22;8103;51.340;12.326;2023-12-28T16:00:24;9.40;99.90